Tindal Airport
YPTN : now visible

Airfield :











YOU CAN JOIN US ON...

 
LOGIN :

Register | Disclaimer

   EN    FR    IT 

 









Legend :    VFR   Marginal VFR   IFR   Intensive IFR   Very Intensive IFR
Visi :
Ceiling :
>= 8 km
>= 3000ft
5 to 8 km
1000 to 3000 ft
1500m to 5 km
500 to 1000 ft
800 to 1500m
200 to 500 ft
< 800m
< 200 ft
Symbols :   Thunderstorms  Fog  Heavy snow  Heavy precipitations  Wind > 20 kt






- Airport Elevation : 443 ft
- IATA code : KTR


YPTN - Tindal

CURRENT METAR :
  • 301630Z AUTO 01005KT 9999 // NCD 25/12 Q1014 RF00.0/000.0

EXPIRED METARs :
  • 301600Z AUTO 31007KT 9999 // NCD 22/12 Q1014
  • 301530Z AUTO 15005KT 9999 // NCD 20/13 Q1013 RF00.0/000.0
  • 301500Z AUTO 00000KT 9999 // NCD 21/12 Q1014 RF00.0/000.0
  • 301430Z AUTO 00000KT 9999 // NCD 22/12 Q1014 RF00.0/000.0
  • 301400Z AUTO 15006KT 9999 // NCD 21/13 Q1014

TAF TAF YPTN
Valid from the 30 at 12:00 until the 31 at 12:00 UTC


301116Z 3012/3112 VRB03KT CAVOK
FM310000 34005KT CAVOK
FM310300 10005KT CAVOK
FM311000 VRB03KT CAVOK
YBBB FIR / Oceania



MET'MAP, your aeronautical weather chart ! - Copyright ORBIFLY December 2007 - Disclaimer

ORBIFLY MET'MAP TEAM :

Programming & Development : Alexandra Zaïnal
Concept & original design : Baudouin d'Aumeries
Assistance for programming : Marc-Olivier Méhu
Technical & hardware support : Manuel Goepfert

Contact : metmap@orbifly.com




SOURCES & CREDITS :

   NOAA       Earth
Advisory